createdAt,value
2023-03-21T00:01:12.761Z,15.50
2023-03-21T00:03:42.481Z,15.00
2023-03-21T00:06:32.196Z,14.90
2023-03-21T00:09:12.111Z,15.30
2023-03-21T00:11:41.518Z,15.90
2023-03-21T00:14:30.158Z,13.70
2023-03-21T00:16:57.227Z,15.80
2023-03-21T00:19:26.027Z,15.50
2023-03-21T00:22:08.566Z,15.30
2023-03-21T00:24:36.298Z,14.40
2023-03-21T00:27:30.295Z,13.20
2023-03-21T00:29:57.365Z,14.10
2023-03-21T00:32:24.471Z,12.90
2023-03-21T00:35:13.706Z,15.00
2023-03-21T00:37:56.048Z,14.30
2023-03-21T00:40:32.938Z,13.70
2023-03-21T00:43:02.114Z,14.60
2023-03-21T00:45:32.747Z,14.00
2023-03-21T00:48:11.496Z,14.00
2023-03-21T00:50:38.827Z,14.30
2023-03-21T00:53:08.743Z,14.70
2023-03-21T00:55:38.168Z,14.20
2023-03-21T00:58:45.755Z,13.30
2023-03-21T01:01:31.474Z,13.60
2023-03-21T01:04:13.118Z,13.00
2023-03-21T01:09:22.904Z,12.50
2023-03-21T01:11:54.642Z,11.70
2023-03-21T01:14:23.704Z,12.10
2023-03-21T01:17:11.152Z,11.90
2023-03-21T01:19:51.530Z,13.10
2023-03-21T01:22:21.674Z,11.50
2023-03-21T01:24:58.630Z,11.90
2023-03-21T01:27:30.126Z,12.80
2023-03-21T01:30:00.188Z,13.80
2023-03-21T01:32:29.994Z,14.50
2023-03-21T01:35:19.164Z,12.40
2023-03-21T01:37:49.689Z,15.30
2023-03-21T01:40:28.027Z,13.80
2023-03-21T01:43:22.951Z,14.40
2023-03-21T01:46:09.307Z,14.80
2023-03-21T01:49:16.552Z,13.80
2023-03-21T01:52:06.570Z,15.50
2023-03-21T01:54:40.456Z,12.90
2023-03-21T01:57:15.931Z,13.80
2023-03-21T01:59:44.718Z,14.70
2023-03-21T02:02:23.737Z,14.90
2023-03-21T02:05:03.399Z,14.20
2023-03-21T02:07:48.386Z,13.40
2023-03-21T02:10:19.258Z,13.80
2023-03-21T02:12:48.499Z,13.50
2023-03-21T02:15:19.177Z,13.00
2023-03-21T02:18:08.696Z,14.10
2023-03-21T02:20:39.998Z,11.80
2023-03-21T02:23:23.379Z,12.60
2023-03-21T02:26:09.302Z,13.70
2023-03-21T02:28:48.721Z,14.90
2023-03-21T02:31:42.830Z,13.60
2023-03-21T02:34:42.730Z,14.30
2023-03-21T02:37:18.483Z,14.90
2023-03-21T02:39:51.554Z,14.30
2023-03-21T02:42:24.870Z,14.50
2023-03-21T02:45:04.951Z,12.60
2023-03-21T02:47:44.543Z,15.00
2023-03-21T02:50:18.053Z,14.20
2023-03-21T02:52:59.252Z,15.40
2023-03-21T02:55:48.934Z,14.30
2023-03-21T02:58:18.201Z,14.70
2023-03-21T03:00:56.632Z,14.80
2023-03-21T03:03:35.078Z,14.40
2023-03-21T03:08:52.902Z,14.50
2023-03-21T03:11:28.319Z,14.10
2023-03-21T03:14:25.044Z,16.00
2023-03-21T03:17:21.616Z,17.40
2023-03-21T03:20:16.409Z,14.30
2023-03-21T03:23:00.321Z,17.20
2023-03-21T03:25:43.714Z,16.70
2023-03-21T03:28:25.253Z,16.90
2023-03-21T03:31:08.781Z,18.40
2023-03-21T03:33:46.215Z,16.50
2023-03-21T03:36:32.105Z,17.90
2023-03-21T03:39:13.251Z,16.50
2023-03-21T03:44:36.738Z,19.30
2023-03-21T03:47:29.858Z,18.50
2023-03-21T03:50:08.996Z,30.20
2023-03-21T03:52:55.294Z,21.60
2023-03-21T03:55:36.197Z,18.90
2023-03-21T03:58:21.157Z,20.50
2023-03-21T04:00:49.342Z,20.00
2023-03-21T04:03:19.025Z,18.80
2023-03-21T04:05:48.883Z,19.00
2023-03-21T04:08:16.735Z,19.40
2023-03-21T04:11:01.504Z,20.30
2023-03-21T04:13:31.617Z,18.80
2023-03-21T04:16:08.121Z,19.50
2023-03-21T04:18:38.815Z,17.50
2023-03-21T04:21:15.046Z,19.40
2023-03-21T04:23:46.908Z,19.00
2023-03-21T04:26:33.884Z,19.50
2023-03-21T04:29:25.363Z,18.40
2023-03-21T04:32:17.124Z,19.30
2023-03-21T04:34:49.687Z,19.50
2023-03-21T04:37:23.942Z,20.50
2023-03-21T04:39:54.630Z,18.60
2023-03-21T04:42:21.779Z,19.90
2023-03-21T04:44:48.930Z,19.60
2023-03-21T04:47:38.240Z,20.70
2023-03-21T04:50:05.454Z,21.20
2023-03-21T04:52:52.370Z,20.70
2023-03-21T04:55:21.032Z,20.40
2023-03-21T04:57:50.223Z,20.90
2023-03-21T05:00:20.364Z,20.70
2023-03-21T05:02:47.239Z,19.20
2023-03-21T05:05:18.780Z,18.50
2023-03-21T05:07:45.702Z,20.70
2023-03-21T05:10:12.747Z,21.90
2023-03-21T05:12:44.914Z,23.70
2023-03-21T05:15:14.010Z,21.30
2023-03-21T05:17:42.183Z,19.60
2023-03-21T05:20:24.180Z,21.10
2023-03-21T05:22:51.336Z,28.60
2023-03-21T05:25:33.383Z,23.50
2023-03-21T05:28:28.730Z,21.30
2023-03-21T05:30:56.238Z,23.00
2023-03-21T05:33:30.512Z,23.60
2023-03-21T05:36:10.658Z,23.20
2023-03-21T05:38:37.899Z,27.50
2023-03-21T05:41:25.746Z,24.10
2023-03-21T05:44:01.508Z,30.50
2023-03-21T05:46:28.304Z,23.50
2023-03-21T05:49:17.997Z,24.70
2023-03-21T05:51:47.866Z,25.60
2023-03-21T05:54:20.406Z,22.80
2023-03-21T05:57:08.089Z,27.60
2023-03-21T06:00:13.277Z,23.30
2023-03-21T06:02:43.334Z,25.50
2023-03-21T06:05:29.797Z,25.50
2023-03-21T06:07:57.659Z,23.90
2023-03-21T06:10:24.795Z,26.90
2023-03-21T06:12:52.032Z,24.90
2023-03-21T06:15:32.034Z,24.70
2023-03-21T06:21:22.474Z,26.90
2023-03-21T06:23:54.249Z,26.30
2023-03-21T06:26:26.313Z,31.00
2023-03-21T06:31:26.507Z,28.70
2023-03-21T06:33:58.960Z,27.90
2023-03-21T06:36:27.344Z,25.00
2023-03-21T06:39:08.404Z,24.10
2023-03-21T06:42:09.898Z,24.90
2023-03-21T06:44:58.729Z,23.80
2023-03-21T06:47:28.158Z,24.10
2023-03-21T06:50:07.155Z,23.70
2023-03-21T06:52:40.668Z,24.70
2023-03-21T06:55:26.253Z,24.50
2023-03-21T06:57:57.753Z,23.10
2023-03-21T07:00:30.824Z,23.80
2023-03-21T07:03:02.524Z,30.60
2023-03-21T07:05:42.313Z,27.60
2023-03-21T07:08:18.782Z,27.00
2023-03-21T07:11:07.542Z,25.20
2023-03-21T07:13:54.373Z,32.50
2023-03-21T07:16:26.535Z,28.70
2023-03-21T07:18:56.185Z,29.10
2023-03-21T07:21:34.397Z,29.80
2023-03-21T07:24:22.707Z,31.90
2023-03-21T07:26:51.270Z,26.20
2023-03-21T07:29:26.616Z,27.20
2023-03-21T07:37:51.765Z,32.30
2023-03-21T07:40:20.971Z,29.70
2023-03-21T07:42:51.188Z,30.50
2023-03-21T07:45:28.452Z,24.10
2023-03-21T07:47:55.737Z,22.40
2023-03-21T07:50:25.336Z,23.00
2023-03-21T07:52:54.616Z,40.10
2023-03-21T07:55:24.101Z,26.00
2023-03-21T07:57:51.508Z,21.40
2023-03-21T08:00:25.686Z,23.20
2023-03-21T08:02:57.048Z,24.00
2023-03-21T08:05:29.506Z,23.30
2023-03-21T08:07:56.568Z,22.90
2023-03-21T08:10:23.400Z,23.30
2023-03-21T08:12:50.459Z,21.90
2023-03-21T08:15:17.511Z,21.90
2023-03-21T08:17:47.375Z,21.80
2023-03-21T08:20:15.696Z,22.70
2023-03-21T08:22:43.151Z,21.80
2023-03-21T08:25:13.304Z,20.90
2023-03-21T08:27:40.656Z,23.90
2023-03-21T08:30:17.311Z,21.40
2023-03-21T08:32:44.443Z,22.40
2023-03-21T08:35:31.678Z,21.70
2023-03-21T08:38:04.855Z,19.60
2023-03-21T08:40:31.881Z,20.90
2023-03-21T08:42:59.149Z,21.40
2023-03-21T08:45:28.355Z,20.40
2023-03-21T08:48:03.947Z,20.90
2023-03-21T08:50:33.210Z,29.10
2023-03-21T08:53:00.040Z,26.10
2023-03-21T08:55:26.644Z,18.60
2023-03-21T08:57:57.596Z,32.60
2023-03-21T09:00:26.883Z,22.40
2023-03-21T09:03:16.158Z,17.60
2023-03-21T09:05:44.956Z,19.50
2023-03-21T09:08:14.558Z,23.00
2023-03-21T09:10:54.488Z,20.40
2023-03-21T09:13:21.996Z,20.70
2023-03-21T09:15:53.351Z,22.40
2023-03-21T09:21:52.278Z,20.10
2023-03-21T09:24:28.034Z,19.40
2023-03-21T09:26:56.699Z,19.00
2023-03-21T09:29:47.908Z,20.60
2023-03-21T09:32:22.434Z,20.30
2023-03-21T09:35:13.547Z,20.50
2023-03-21T09:38:02.434Z,20.00
2023-03-21T09:40:41.052Z,18.20
2023-03-21T09:43:30.183Z,21.60
2023-03-21T09:46:16.379Z,20.60
2023-03-21T09:48:57.523Z,20.20
2023-03-21T09:53:57.789Z,21.10
2023-03-21T09:56:26.239Z,19.90
2023-03-21T09:58:56.832Z,22.30
2023-03-21T10:01:32.895Z,20.90
2023-03-21T10:04:25.155Z,21.10
2023-03-21T10:07:18.969Z,24.10
2023-03-21T10:09:48.502Z,22.80
2023-03-21T10:12:23.032Z,25.40
2023-03-21T10:14:54.136Z,23.40
2023-03-21T10:17:22.951Z,23.20
2023-03-21T10:20:12.220Z,23.00
2023-03-21T10:22:45.938Z,23.20
2023-03-21T10:25:18.249Z,22.70
2023-03-21T10:27:50.086Z,21.80
2023-03-21T10:30:35.224Z,22.20
2023-03-21T10:33:05.669Z,23.20
2023-03-21T10:35:41.639Z,28.80
2023-03-21T10:38:13.850Z,23.10
2023-03-21T10:40:42.244Z,24.60
2023-03-21T10:43:16.898Z,24.80
2023-03-21T10:45:46.339Z,23.00
2023-03-21T10:48:17.604Z,29.40
2023-03-21T10:50:55.562Z,24.20
2023-03-21T10:53:29.146Z,22.70
2023-03-21T10:56:19.808Z,23.70
2023-03-21T10:58:49.719Z,25.60
2023-03-21T11:01:26.119Z,24.50
2023-03-21T11:04:14.757Z,25.20
2023-03-21T11:06:44.788Z,24.60
2023-03-21T11:09:17.592Z,24.00
2023-03-21T11:11:53.680Z,24.70
2023-03-21T11:14:33.461Z,24.90
2023-03-21T11:17:21.827Z,27.80
2023-03-21T11:20:00.930Z,26.80
2023-03-21T11:22:38.921Z,25.60
2023-03-21T11:25:09.389Z,26.60
2023-03-21T11:27:47.248Z,29.90
2023-03-21T11:30:20.810Z,28.50
2023-03-21T11:32:52.445Z,25.70
2023-03-21T11:35:21.963Z,27.10
2023-03-21T11:37:54.537Z,26.30
2023-03-21T11:40:33.475Z,26.20
2023-03-21T11:43:04.966Z,28.80
2023-03-21T11:45:35.660Z,22.90
2023-03-21T11:48:15.571Z,27.00
2023-03-21T11:50:46.201Z,23.40
2023-03-21T11:53:26.678Z,24.50
2023-03-21T11:55:57.047Z,24.80
2023-03-21T11:58:31.199Z,26.60
2023-03-21T12:00:59.592Z,24.70
2023-03-21T12:03:48.618Z,25.70
2023-03-21T12:06:24.225Z,28.40
2023-03-21T12:09:11.239Z,26.00
2023-03-21T12:11:51.414Z,32.40
2023-03-21T12:14:28.717Z,28.10
2023-03-21T12:17:05.406Z,25.20
2023-03-21T12:20:14.145Z,27.80
2023-03-21T12:22:52.421Z,24.90
2023-03-21T12:25:29.126Z,29.70
2023-03-21T12:28:13.857Z,28.30
2023-03-21T12:31:03.238Z,27.60
2023-03-21T12:33:31.406Z,28.80
2023-03-21T12:36:05.418Z,26.70
2023-03-21T12:38:36.663Z,27.40
2023-03-21T12:43:47.378Z,27.80
2023-03-21T12:46:24.710Z,29.10
2023-03-21T12:48:58.809Z,30.50
2023-03-21T12:51:32.429Z,33.70
2023-03-21T12:54:18.036Z,28.60
2023-03-21T12:56:55.588Z,25.90
2023-03-21T12:59:36.817Z,25.70
2023-03-21T13:05:05.992Z,27.50
2023-03-21T13:07:51.763Z,25.70
2023-03-21T13:10:21.190Z,26.70
2023-03-21T13:13:18.746Z,25.80
2023-03-21T13:16:03.796Z,29.80
2023-03-21T13:18:34.170Z,25.80
2023-03-21T13:21:34.083Z,24.90
2023-03-21T13:24:19.421Z,32.70
2023-03-21T13:27:24.850Z,28.20
2023-03-21T13:30:07.225Z,52.90
2023-03-21T13:32:40.994Z,38.50
2023-03-21T13:35:30.951Z,32.20
2023-03-21T13:38:08.986Z,38.40
2023-03-21T13:40:52.162Z,35.10
2023-03-21T13:43:34.386Z,33.70
2023-03-21T13:46:09.763Z,37.50
2023-03-21T13:49:00.162Z,29.60
2023-03-21T13:51:33.816Z,40.70
2023-03-21T13:54:17.725Z,36.30
2023-03-21T13:56:51.872Z,30.70
2023-03-21T13:59:39.755Z,28.90
2023-03-21T14:02:13.706Z,30.50
2023-03-21T14:05:00.373Z,33.60
2023-03-21T14:07:38.598Z,33.10
2023-03-21T14:10:09.078Z,34.00
2023-03-21T14:12:38.833Z,33.60
2023-03-21T14:15:16.859Z,31.40
2023-03-21T14:17:54.795Z,31.70
2023-03-21T14:20:40.212Z,36.20
2023-03-21T14:23:13.633Z,29.50
2023-03-21T14:25:47.453Z,30.50
2023-03-21T14:28:18.336Z,30.00
2023-03-21T14:30:50.536Z,28.30
2023-03-21T14:33:18.710Z,31.30
2023-03-21T14:35:47.659Z,28.50
2023-03-21T14:38:23.598Z,30.50
2023-03-21T14:40:54.979Z,33.50
2023-03-21T14:43:24.009Z,28.00
2023-03-21T14:45:54.504Z,29.30
2023-03-21T14:48:45.396Z,30.30
2023-03-21T14:51:13.769Z,30.40
2023-03-21T14:53:42.662Z,30.50
2023-03-21T14:56:16.801Z,33.50
2023-03-21T14:58:46.574Z,31.10
2023-03-21T15:01:25.039Z,31.40
2023-03-21T15:03:53.682Z,29.60
2023-03-21T15:06:39.087Z,29.00
2023-03-21T15:09:16.550Z,33.70
2023-03-21T15:11:49.248Z,31.10
2023-03-21T15:14:18.654Z,40.00
2023-03-21T15:16:47.514Z,38.70
2023-03-21T15:19:17.827Z,32.20
2023-03-21T15:21:51.542Z,44.60
2023-03-21T15:24:25.774Z,32.30
2023-03-21T15:26:57.313Z,33.40
2023-03-21T15:29:28.966Z,31.30
2023-03-21T15:31:57.060Z,32.70
2023-03-21T15:34:28.503Z,30.80
2023-03-21T15:36:58.962Z,43.30
2023-03-21T15:39:28.452Z,29.80
2023-03-21T15:41:58.437Z,40.20
2023-03-21T15:44:27.119Z,33.20
2023-03-21T15:46:55.870Z,36.40
2023-03-21T15:49:34.767Z,30.70
2023-03-21T15:52:16.440Z,36.20
2023-03-21T15:54:50.983Z,33.70
2023-03-21T15:57:25.411Z,38.40
2023-03-21T16:00:00.514Z,34.90
2023-03-21T16:02:30.267Z,35.40
2023-03-21T16:05:03.930Z,32.80
2023-03-21T16:07:34.345Z,35.70
2023-03-21T16:10:05.708Z,28.20
2023-03-21T16:12:34.507Z,33.50
2023-03-21T16:15:02.679Z,34.90
2023-03-21T16:17:37.638Z,45.60
2023-03-21T16:20:20.863Z,51.30
2023-03-21T16:22:49.072Z,37.00
2023-03-21T16:25:24.948Z,33.90
2023-03-21T16:27:55.513Z,38.80
2023-03-21T16:30:31.260Z,37.60
2023-03-21T16:32:59.622Z,37.40
2023-03-21T16:35:28.124Z,39.70
2023-03-21T16:37:59.227Z,36.30
2023-03-21T16:40:31.689Z,46.20
2023-03-21T16:43:01.043Z,49.20
2023-03-21T16:45:30.611Z,50.90
2023-03-21T16:47:59.154Z,47.10
2023-03-21T16:50:29.654Z,47.50
2023-03-21T16:52:58.330Z,47.20
2023-03-21T16:55:47.162Z,54.50
2023-03-21T16:58:16.580Z,53.40
2023-03-21T17:00:47.231Z,51.70
2023-03-21T17:03:19.431Z,44.60
2023-03-21T17:05:50.517Z,43.80
2023-03-21T17:08:30.594Z,46.60
2023-03-21T17:11:10.165Z,55.10
2023-03-21T17:13:41.541Z,38.20
2023-03-21T17:16:35.255Z,47.10
2023-03-21T17:19:19.991Z,46.50
2023-03-21T17:21:51.547Z,50.10
2023-03-21T17:24:23.915Z,37.50
2023-03-21T17:27:03.156Z,38.10
2023-03-21T17:29:34.320Z,41.70
2023-03-21T17:32:05.718Z,46.20
2023-03-21T17:34:45.601Z,39.40
2023-03-21T17:37:13.666Z,44.30
2023-03-21T17:39:43.014Z,44.10
2023-03-21T17:42:18.375Z,45.00
2023-03-21T17:45:06.873Z,44.80
2023-03-21T17:47:38.105Z,54.90
2023-03-21T17:50:26.591Z,57.40
2023-03-21T17:52:57.463Z,52.00
2023-03-21T17:55:40.650Z,48.60
2023-03-21T17:58:10.248Z,46.30
2023-03-21T18:00:43.612Z,47.90
2023-03-21T18:03:16.740Z,48.70
2023-03-21T18:06:05.661Z,46.40
2023-03-21T18:08:44.788Z,44.50
2023-03-21T18:11:13.418Z,51.80
2023-03-21T18:13:43.102Z,43.40
2023-03-21T18:16:15.123Z,44.50
2023-03-21T18:18:45.161Z,58.10
2023-03-21T18:21:18.989Z,61.20
2023-03-21T18:23:48.191Z,48.80
2023-03-21T18:26:18.139Z,53.10
2023-03-21T18:29:13.717Z,52.50
2023-03-21T18:31:37.386Z,41.80
2023-03-21T18:34:08.657Z,45.30
2023-03-21T18:39:07.324Z,44.10
2023-03-21T18:41:35.638Z,45.50
2023-03-21T18:44:12.974Z,43.30
2023-03-21T18:46:50.350Z,38.60
2023-03-21T18:50:02.069Z,46.40
2023-03-21T18:52:08.412Z,60.40
2023-03-21T18:54:38.148Z,53.20
2023-03-21T18:57:34.201Z,46.70
2023-03-21T18:59:55.090Z,44.70
2023-03-21T19:02:23.468Z,44.10
2023-03-21T19:04:51.802Z,61.20
2023-03-21T19:07:20.037Z,45.90
2023-03-21T19:10:10.671Z,44.00
2023-03-21T19:12:38.277Z,42.80
2023-03-21T19:15:06.877Z,46.10
2023-03-21T19:18:26.131Z,65.30
2023-03-21T19:20:23.891Z,39.90
2023-03-21T19:22:52.060Z,39.10
2023-03-21T19:25:20.420Z,43.60
2023-03-21T19:27:50.616Z,38.80
2023-03-21T19:30:19.737Z,43.70
2023-03-21T19:32:47.892Z,38.60
2023-03-21T19:35:17.270Z,38.50
2023-03-21T19:37:48.585Z,37.10
2023-03-21T19:40:17.061Z,35.60
2023-03-21T19:42:45.923Z,36.90
2023-03-21T19:45:14.020Z,40.90
2023-03-21T19:47:42.304Z,39.00
2023-03-21T19:52:59.236Z,39.20
2023-03-21T19:55:27.344Z,39.60
2023-03-21T19:57:55.678Z,31.90
2023-03-21T20:00:24.181Z,35.20
2023-03-21T20:02:52.213Z,34.60
2023-03-21T20:05:22.085Z,32.90
2023-03-21T20:07:50.322Z,34.60
2023-03-21T20:10:18.800Z,34.00
2023-03-21T20:12:50.021Z,32.70
2023-03-21T20:15:21.501Z,32.20
2023-03-21T20:18:04.412Z,31.90
2023-03-21T20:20:35.252Z,31.90
2023-03-21T20:23:07.408Z,31.90
2023-03-21T20:25:39.873Z,31.10
2023-03-21T20:28:23.772Z,33.20
2023-03-21T20:31:02.058Z,31.00
2023-03-21T20:33:39.337Z,32.40
2023-03-21T20:36:37.430Z,30.10
2023-03-21T20:39:17.974Z,28.00
2023-03-21T20:41:49.054Z,28.40
2023-03-21T20:44:45.217Z,32.60
2023-03-21T20:47:19.362Z,31.00
2023-03-21T20:49:49.408Z,33.20
2023-03-21T20:55:09.146Z,30.20
2023-03-21T20:57:38.966Z,32.10
2023-03-21T21:00:27.708Z,30.70
2023-03-21T21:02:58.299Z,32.50
2023-03-21T21:05:30.107Z,31.70
2023-03-21T21:08:01.046Z,37.30
2023-03-21T21:10:29.968Z,39.40
2023-03-21T21:12:58.045Z,36.80
2023-03-21T21:15:26.120Z,36.20
2023-03-21T21:18:06.079Z,34.40
2023-03-21T21:20:36.884Z,32.70
2023-03-21T21:23:05.723Z,33.90
2023-03-21T21:25:44.247Z,34.00
2023-03-21T21:28:12.514Z,33.00
2023-03-21T21:30:41.724Z,31.40
2023-03-21T21:33:10.058Z,32.20
2023-03-21T21:35:38.856Z,29.20
2023-03-21T21:38:07.529Z,29.90
2023-03-21T21:40:38.734Z,29.40
2023-03-21T21:43:13.195Z,29.70
2023-03-21T21:45:42.300Z,30.70
2023-03-21T21:48:16.355Z,31.00
2023-03-21T21:50:44.661Z,30.50
2023-03-21T21:53:56.370Z,28.60
2023-03-21T21:59:06.852Z,29.20
2023-03-21T22:01:34.986Z,33.50
2023-03-21T22:04:06.402Z,32.10
2023-03-21T22:06:37.753Z,34.30
2023-03-21T22:09:07.126Z,36.10
2023-03-21T22:11:40.993Z,41.70
2023-03-21T22:14:09.323Z,42.40
2023-03-21T22:16:37.602Z,38.20
2023-03-21T22:19:05.858Z,38.20
2023-03-21T22:21:36.261Z,35.80
2023-03-21T22:24:04.547Z,33.70
2023-03-21T22:26:33.709Z,31.90
2023-03-21T22:29:12.174Z,32.30
2023-03-21T22:31:48.120Z,34.70
2023-03-21T22:34:23.847Z,33.30
2023-03-21T22:37:05.298Z,37.00
2023-03-21T22:39:45.667Z,37.20
2023-03-21T22:42:13.831Z,34.40
2023-03-21T22:45:05.938Z,33.70
2023-03-21T22:47:36.980Z,29.80
2023-03-21T22:50:15.479Z,30.50
2023-03-21T22:52:43.573Z,31.00
2023-03-21T22:55:12.973Z,31.90
2023-03-21T22:57:41.248Z,28.70
2023-03-21T23:00:13.789Z,31.10
2023-03-21T23:02:41.930Z,28.20
2023-03-21T23:05:10.790Z,29.40
2023-03-21T23:07:41.064Z,30.60
2023-03-21T23:10:14.853Z,29.20
2023-03-21T23:12:45.982Z,28.90
2023-03-21T23:15:19.566Z,28.70
2023-03-21T23:17:48.040Z,31.40
2023-03-21T23:20:16.549Z,32.60
2023-03-21T23:22:44.715Z,29.80
2023-03-21T23:25:16.041Z,30.80
2023-03-21T23:27:44.842Z,32.00
2023-03-21T23:30:15.712Z,31.20
2023-03-21T23:32:54.348Z,30.80
2023-03-21T23:35:48.732Z,28.40
2023-03-21T23:38:17.225Z,28.00
2023-03-21T23:40:45.533Z,33.00
2023-03-21T23:43:36.547Z,33.80
2023-03-21T23:46:06.997Z,30.80
2023-03-21T23:48:38.014Z,31.80
2023-03-21T23:51:26.813Z,30.40
2023-03-21T23:53:56.815Z,29.80
2023-03-21T23:56:25.995Z,29.60
2023-03-21T23:58:57.439Z,29.80
